Time;durP1;ratioP1;P1;durP2;ratioP2;P2;SDS_P1;SDS_P2;PMS_P1;PMS_P2;Temp;Humidity;BMP_temperature;BMP_pressure;BME280_temperature;BME280_humidity;BME280_pressure;Samples;Min_cycle;Max_cycle;Signal;HPM_P1;HPM_P2
2022/04/03 00:01:48;;;;;;;2.08;1.40;;;-0.20;99.90;;;;;;5117890;27;20382;-79
2022/04/03 00:04:14;;;;;;;3.22;1.30;;;-0.20;99.90;;;;;;5128208;27;20031;-77
2022/04/03 00:06:40;;;;;;;2.88;1.48;;;-0.10;99.90;;;;;;5120440;27;20042;-79
2022/04/03 00:09:07;;;;;;;2.85;1.73;;;-0.10;99.90;;;;;;5135113;27;20045;-79
2022/04/03 00:11:32;;;;;;;3.50;1.58;;;-0.10;99.90;;;;;;5135299;27;20046;-79
2022/04/03 00:13:58;;;;;;;2.00;1.40;;;0.00;99.90;;;;;;5114884;28;20232;-79
2022/04/03 00:16:24;;;;;;;2.28;1.40;;;0.00;99.90;;;;;;5121145;27;20283;-79
2022/04/03 00:18:50;;;;;;;3.07;1.47;;;0.10;99.90;;;;;;5125862;28;20051;-78
2022/04/03 00:21:16;;;;;;;2.15;1.30;;;0.10;99.90;;;;;;5127673;27;20692;-78
2022/04/03 00:23:42;;;;;;;3.92;1.95;;;0.20;99.90;;;;;;5102221;28;20051;-78
2022/04/03 00:26:07;;;;;;;3.05;1.90;;;0.10;99.90;;;;;;5113994;27;20442;-79
2022/04/03 00:28:33;;;;;;;3.60;1.95;;;0.10;99.90;;;;;;5131440;27;20070;-78
2022/04/03 00:30:59;;;;;;;3.13;1.83;;;0.10;99.90;;;;;;5135251;27;20066;-78
2022/04/03 00:33:25;;;;;;;2.67;1.58;;;0.10;99.90;;;;;;5124379;28;20112;-78
2022/04/03 00:35:51;;;;;;;1.63;1.10;;;0.10;99.90;;;;;;5114770;28;20043;-79
2022/04/03 00:38:17;;;;;;;2.17;1.30;;;0.10;99.90;;;;;;5130175;28;20329;-79
2022/04/03 00:40:47;;;;;;;2.38;1.30;;;0.00;99.90;;;;;;5104675;28;20051;-78
2022/04/03 00:43:12;;;;;;;2.35;1.30;;;0.00;99.90;;;;;;5102100;27;20035;-79
2022/04/03 00:45:43;;;;;;;1.52;1.02;;;-0.10;99.90;;;;;;5120640;27;20502;-80
2022/04/03 00:48:10;;;;;;;1.70;1.20;;;-0.10;99.90;;;;;;5135002;27;20042;-78
2022/04/03 00:50:35;;;;;;;2.08;1.10;;;-0.10;99.90;;;;;;5130929;28;20371;-79
2022/04/03 00:53:01;;;;;;;2.17;1.30;;;-0.20;99.90;;;;;;5121920;27;20234;-78
2022/04/03 00:55:27;;;;;;;1.90;1.30;;;-0.20;99.90;;;;;;5118124;27;20031;-78
2022/04/03 00:57:53;;;;;;;1.80;1.20;;;-0.20;99.90;;;;;;5122993;28;20628;-77
2022/04/03 01:00:18;;;;;;;1.88;1.15;;;-0.30;99.90;;;;;;5116894;27;20288;-78
2022/04/03 01:02:44;;;;;;;2.20;1.13;;;-0.30;99.90;;;;;;5132821;27;20035;-79
2022/04/03 01:05:10;;;;;;;1.95;1.10;;;-0.30;99.90;;;;;;5119991;27;20076;-79
2022/04/03 01:07:36;;;;;;;1.88;1.00;;;-0.40;99.90;;;;;;5123994;27;20049;-79
2022/04/03 01:10:02;;;;;;;;;;;-0.40;99.90;;;;;;5118056;28;20122;-71
2022/04/03 01:12:28;;;;;;;1.88;1.05;;;-0.50;99.90;;;;;;5117991;27;20002;-70
2022/04/03 01:14:54;;;;;;;2.50;1.40;;;-0.60;99.90;;;;;;5114208;27;20455;-71
2022/04/03 01:17:19;;;;;;;1.87;1.07;;;-0.60;99.90;;;;;;5095528;27;20332;-69
2022/04/03 01:19:45;;;;;;;1.90;1.23;;;-0.70;99.90;;;;;;5112817;27;20043;-69
2022/04/03 01:22:12;;;;;;;1.73;1.00;;;-0.70;99.90;;;;;;5132797;27;20121;-70
2022/04/03 01:24:42;;;;;;;1.75;1.02;;;-0.70;99.90;;;;;;5130521;27;20669;-70
2022/04/03 01:27:08;;;;;;;2.28;1.00;;;-0.70;99.90;;;;;;5118074;27;20035;-70
2022/04/03 01:29:34;;;;;;;2.13;1.05;;;-0.70;99.90;;;;;;5116228;27;20035;-70
2022/04/03 01:32:00;;;;;;;2.15;1.33;;;-0.80;99.90;;;;;;5113665;27;20053;-71
2022/04/03 01:34:25;;;;;;;2.63;1.50;;;-0.80;99.90;;;;;;5122801;27;20035;-70
2022/04/03 01:36:51;;;;;;;2.05;1.20;;;-0.90;99.90;;;;;;5151330;27;20546;-69
2022/04/03 01:39:17;;;;;;;2.33;1.20;;;-0.90;99.90;;;;;;5154188;27;20172;-70
2022/04/03 01:41:43;;;;;;;2.08;1.20;;;-0.90;99.90;;;;;;5123622;27;20296;-71
2022/04/03 01:44:11;;;;;;;2.13;1.20;;;-0.90;99.90;;;;;;5120575;27;20050;-70
2022/04/03 01:46:40;;;;;;;3.17;1.40;;;-0.80;99.90;;;;;;5146301;27;20035;-70
2022/04/03 01:49:07;;;;;;;2.30;1.50;;;-0.80;99.90;;;;;;5126028;27;20378;-70
2022/04/03 01:51:33;;;;;;;1.45;1.00;;;-0.80;99.90;;;;;;5105662;27;20069;-70
2022/04/03 01:54:00;;;;;;;;;;;-0.70;99.90;;;;;;5133128;27;20118;-70
2022/04/03 01:56:25;;;;;;;2.15;1.30;;;-0.70;99.90;;;;;;5118932;27;20362;-70
2022/04/03 01:58:51;;;;;;;1.70;1.30;;;-0.60;99.90;;;;;;5106298;27;20049;-70
2022/04/03 02:01:16;;;;;;;1.60;1.10;;;-0.50;99.90;;;;;;5095393;27;20034;-71
2022/04/03 02:03:43;;;;;;;1.45;0.90;;;-0.50;99.90;;;;;;5134142;27;20050;-70
2022/04/03 02:06:08;;;;;;;2.45;1.02;;;-0.50;99.90;;;;;;5124371;27;20038;-70
2022/04/03 02:08:34;;;;;;;1.45;1.25;;;-0.40;99.90;;;;;;5100178;27;20027;-70
2022/04/03 02:11:00;;;;;;;1.70;1.10;;;-0.20;99.90;;;;;;5107242;27;20095;-70
2022/04/03 02:13:26;;;;;;;2.65;1.20;;;-0.20;99.90;;;;;;5143630;27;20145;-71
2022/04/03 02:15:52;;;;;;;1.60;1.10;;;-0.10;99.90;;;;;;5131602;27;20043;-71
2022/04/03 02:18:18;;;;;;;2.15;1.30;;;-0.10;99.90;;;;;;5121892;27;20111;-71
2022/04/03 02:20:43;;;;;;;2.65;1.52;;;0.00;99.90;;;;;;5114680;27;20035;-70
2022/04/03 02:23:10;;;;;;;2.72;1.65;;;0.10;99.90;;;;;;5119213;27;20160;-71
2022/04/03 02:25:37;;;;;;;2.80;1.38;;;0.10;99.90;;;;;;5132502;27;20026;-70
2022/04/03 02:28:04;;;;;;;2.63;1.45;;;0.20;99.90;;;;;;5153473;27;20159;-71
2022/04/03 02:30:30;;;;;;;2.67;1.20;;;0.30;99.90;;;;;;5130037;27;20072;-71
2022/04/03 02:32:56;;;;;;;2.25;1.23;;;0.30;99.90;;;;;;5134942;27;20099;-70
2022/04/03 02:35:22;;;;;;;1.73;1.25;;;0.30;99.90;;;;;;5127471;27;20035;-70
2022/04/03 02:37:48;;;;;;;1.85;1.08;;;0.40;99.90;;;;;;5121846;27;20030;-69
2022/04/03 02:40:17;;;;;;;1.50;0.90;;;0.40;99.90;;;;;;5108090;27;20035;-71
2022/04/03 02:42:44;;;;;;;2.53;1.30;;;0.40;99.90;;;;;;5117866;27;20050;-71
2022/04/03 02:45:10;;;;;;;1.55;1.00;;;0.50;99.90;;;;;;5120009;27;20148;-69
2022/04/03 02:47:37;;;;;;;1.60;0.88;;;0.60;99.90;;;;;;5098055;27;20143;-70
2022/04/03 02:50:04;;;;;;;1.88;0.90;;;0.60;99.90;;;;;;5129364;27;20513;-70
2022/04/03 02:52:30;;;;;;;1.42;0.82;;;0.60;99.90;;;;;;5129887;27;20082;-70
2022/04/03 02:54:57;;;;;;;1.20;0.85;;;0.60;99.90;;;;;;5109455;27;20078;-70
2022/04/03 02:57:22;;;;;;;1.50;0.90;;;0.60;99.90;;;;;;5131612;27;20038;-70
2022/04/03 02:59:48;;;;;;;5.30;2.45;;;0.60;99.90;;;;;;5120906;27;20512;-70
2022/04/03 03:02:14;;;;;;;5.25;2.40;;;0.70;99.90;;;;;;5134019;27;20516;-70
2022/04/03 03:04:40;;;;;;;3.25;2.00;;;0.80;99.90;;;;;;5108435;27;20038;-70
2022/04/03 03:07:07;;;;;;;2.78;1.70;;;0.90;99.90;;;;;;5109055;27;20035;-70
2022/04/03 03:09:34;;;;;;;3.92;1.13;;;1.10;99.90;;;;;;5116545;27;20404;-71
2022/04/03 03:11:59;;;;;;;2.60;0.95;;;1.20;99.90;;;;;;5115470;27;20046;-70
2022/04/03 03:14:26;;;;;;;2.20;0.90;;;1.30;99.90;;;;;;5124953;27;20039;-71
2022/04/03 03:16:52;;;;;;;1.20;0.73;;;1.30;99.90;;;;;;5115815;27;20486;-70
2022/04/03 03:19:17;;;;;;;1.52;0.70;;;1.40;99.90;;;;;;5118849;27;20039;-70
2022/04/03 03:21:43;;;;;;;1.17;0.70;;;1.50;99.90;;;;;;5117379;27;20495;-71
2022/04/03 03:24:09;;;;;;;1.13;0.50;;;1.50;99.90;;;;;;5119460;27;20069;-70
2022/04/03 03:26:35;;;;;;;0.80;0.43;;;1.50;99.90;;;;;;5130441;27;20034;-71
2022/04/03 03:29:02;;;;;;;0.88;0.60;;;1.50;99.90;;;;;;5109346;27;20057;-71
2022/04/03 03:31:28;;;;;;;2.20;0.80;;;1.40;99.90;;;;;;5107886;27;20057;-71
2022/04/03 03:33:54;;;;;;;0.63;0.50;;;1.50;99.90;;;;;;5130975;27;20039;-71
2022/04/03 03:36:20;;;;;;;0.90;0.60;;;1.50;99.90;;;;;;5118230;27;20065;-71
2022/04/03 03:38:46;;;;;;;1.48;0.60;;;1.50;99.90;;;;;;5121490;27;20490;-71
2022/04/03 03:41:14;;;;;;;1.37;0.67;;;1.40;99.90;;;;;;5113784;27;20033;-78
2022/04/03 03:43:40;;;;;;;1.00;0.60;;;1.40;99.90;;;;;;5130584;27;20338;-78
2022/04/03 03:46:06;;;;;;;1.25;0.60;;;1.40;99.90;;;;;;5109480;27;20099;-79
2022/04/03 03:48:32;;;;;;;0.77;0.60;;;1.30;99.90;;;;;;5135040;27;20470;-79
2022/04/03 03:50:57;;;;;;;1.58;0.60;;;1.30;99.90;;;;;;5136309;27;20038;-79
2022/04/03 03:53:23;;;;;;;0.80;0.77;;;1.20;99.90;;;;;;5135751;27;20046;-79
2022/04/03 03:55:49;;;;;;;0.60;0.60;;;1.20;99.90;;;;;;5135622;27;20288;-78
2022/04/03 03:58:15;;;;;;;0.88;0.65;;;1.20;99.90;;;;;;5128877;27;20043;-78
2022/04/03 04:00:41;;;;;;;1.05;0.80;;;1.20;99.90;;;;;;5106364;27;20108;-78
2022/04/03 04:03:06;;;;;;;1.13;0.60;;;1.10;99.90;;;;;;5104506;27;20042;-78
2022/04/03 04:05:32;;;;;;;1.58;0.80;;;1.00;99.90;;;;;;5116731;27;20277;-79
2022/04/03 04:07:58;;;;;;;2.53;1.58;;;1.00;99.90;;;;;;5122510;27;20046;-78
2022/04/03 04:10:24;;;;;;;1.05;0.70;;;0.90;99.90;;;;;;5110907;27;20054;-78
2022/04/03 04:12:49;;;;;;;0.50;0.47;;;0.90;99.90;;;;;;5116782;27;20031;-78
2022/04/03 04:15:15;;;;;;;0.93;0.60;;;0.80;99.90;;;;;;5118504;27;20035;-78
2022/04/03 04:17:46;;;;;;;0.75;0.57;;;0.90;99.90;;;;;;5128920;28;20122;-79
2022/04/03 04:20:17;;;;;;;0.50;0.38;;;0.80;99.90;;;;;;5114904;28;20126;-78
2022/04/03 04:22:45;;;;;;;0.40;0.40;;;0.80;99.90;;;;;;5111439;28;20058;-79
2022/04/03 04:25:13;;;;;;;1.48;0.50;;;0.70;99.90;;;;;;5112277;28;20814;-78
2022/04/03 04:27:39;;;;;;;0.60;0.30;;;0.70;99.90;;;;;;5127906;28;20118;-78
2022/04/03 04:30:06;;;;;;;0.82;0.40;;;0.60;99.90;;;;;;5093854;28;20031;-78
2022/04/03 04:32:32;;;;;;;0.50;0.38;;;0.60;99.90;;;;;;5118486;28;20042;-79
2022/04/03 04:34:58;;;;;;;0.55;0.30;;;0.60;99.90;;;;;;5129192;28;20050;-79
2022/04/03 04:37:24;;;;;;;0.30;0.30;;;0.50;99.90;;;;;;5131991;28;20039;-79
2022/04/03 04:39:50;;;;;;;0.45;0.30;;;0.40;99.90;;;;;;5120102;28;20084;-79
2022/04/03 04:42:16;;;;;;;0.57;0.35;;;0.40;99.90;;;;;;5131932;28;20043;-79
2022/04/03 04:44:42;;;;;;;1.23;0.40;;;0.30;99.90;;;;;;5131648;28;20054;-78
2022/04/03 04:47:08;;;;;;;0.40;0.30;;;0.30;99.90;;;;;;5118367;28;20031;-79
2022/04/03 04:49:40;;;;;;;0.75;0.40;;;0.30;99.90;;;;;;5123703;28;20065;-79
2022/04/03 04:52:06;;;;;;;0.60;0.40;;;0.20;99.90;;;;;;5129740;28;20058;-80
2022/04/03 04:54:31;;;;;;;0.30;0.30;;;0.10;99.90;;;;;;5123524;27;20114;-79
2022/04/03 04:56:58;;;;;;;1.23;0.60;;;0.00;99.90;;;;;;5105725;27;20426;-79
2022/04/03 04:59:24;;;;;;;;;;;0.10;99.90;;;;;;5127428;27;20071;-79
2022/04/03 05:01:49;;;;;;;1.00;0.70;;;0.10;99.90;;;;;;5114625;28;19966;-79
2022/04/03 05:04:15;;;;;;;0.40;0.35;;;0.10;99.90;;;;;;5116639;27;20043;-80
2022/04/03 05:06:42;;;;;;;0.68;0.40;;;0.10;99.90;;;;;;5119764;27;20050;-79
2022/04/03 05:09:09;;;;;;;0.90;0.70;;;0.10;99.90;;;;;;5086927;28;20043;-79
2022/04/03 05:11:37;;;;;;;0.98;0.60;;;0.10;99.90;;;;;;5127223;27;20079;-79
2022/04/03 05:14:03;;;;;;;0.60;0.50;;;0.10;99.90;;;;;;5125886;27;20369;-79
2022/04/03 05:16:29;;;;;;;0.73;0.52;;;0.10;99.90;;;;;;5131430;27;20063;-78
2022/04/03 05:18:55;;;;;;;0.70;0.50;;;0.10;99.90;;;;;;5127295;27;20061;-79
2022/04/03 05:21:22;;;;;;;0.60;0.50;;;0.10;99.90;;;;;;5118017;27;20505;-77
2022/04/03 05:23:49;;;;;;;0.75;0.50;;;0.10;99.90;;;;;;5122693;27;20466;-78
2022/04/03 05:26:16;;;;;;;;;;;0.10;99.90;;;;;;5115913;27;20078;-79
2022/04/03 05:28:41;;;;;;;2.30;0.75;;;0.20;99.90;;;;;;5119293;27;19915;-79
2022/04/03 05:31:07;;;;;;;0.95;0.60;;;0.20;99.90;;;;;;5131020;27;20096;-80
2022/04/03 05:33:32;;;;;;;1.00;0.60;;;0.30;99.90;;;;;;5125746;27;20440;-80
2022/04/03 05:35:58;;;;;;;0.65;0.50;;;0.30;99.90;;;;;;5114311;27;20464;-80
2022/04/03 05:38:24;;;;;;;0.60;0.50;;;0.30;99.90;;;;;;5126521;27;20367;-79
2022/04/03 05:40:49;;;;;;;0.93;0.60;;;0.30;99.90;;;;;;5098514;27;20309;-80
2022/04/03 05:43:15;;;;;;;0.87;0.50;;;0.30;99.90;;;;;;5100739;28;20044;-79
2022/04/03 05:45:42;;;;;;;1.00;0.50;;;0.20;99.90;;;;;;5127229;27;20361;-79
2022/04/03 05:48:08;;;;;;;0.80;0.60;;;0.30;99.90;;;;;;5110766;27;20439;-70
2022/04/03 05:50:35;;;;;;;1.38;0.50;;;0.30;99.90;;;;;;5107382;27;20031;-70
2022/04/03 05:53:01;;;;;;;1.50;0.60;;;0.20;99.90;;;;;;5128440;27;20077;-70
2022/04/03 05:55:27;;;;;;;1.25;0.80;;;0.30;99.90;;;;;;5130738;27;20082;-70
2022/04/03 05:57:53;;;;;;;1.08;0.80;;;0.30;99.90;;;;;;5089857;28;20539;-70
2022/04/03 06:00:20;;;;;;;;;;;0.30;99.90;;;;;;5123858;27;20449;-71
2022/04/03 06:02:50;;;;;;;1.48;0.70;;;0.40;99.90;;;;;;5121437;27;20271;-71
2022/04/03 06:05:22;;;;;;;0.80;0.70;;;0.60;99.90;;;;;;5127477;27;20559;-71
2022/04/03 06:07:48;;;;;;;2.50;0.90;;;0.70;99.90;;;;;;5131324;27;20054;-80
2022/04/03 06:10:15;;;;;;;1.05;0.60;;;0.90;99.90;;;;;;5127524;27;20034;-80
2022/04/03 06:12:54;;;;;;;1.13;0.77;;;1.10;99.90;;;;;;5127953;27;20035;-80
2022/04/03 06:15:20;;;;;;;0.50;0.50;;;1.20;99.90;;;;;;5116105;27;20042;-80
2022/04/03 06:17:50;;;;;;;0.63;0.50;;;1.20;99.90;;;;;;5107558;27;20406;-79
2022/04/03 06:20:17;;;;;;;1.30;0.55;;;1.20;99.90;;;;;;5096126;28;20078;-80
2022/04/03 06:22:43;;;;;;;0.73;0.50;;;1.30;99.90;;;;;;5123873;27;20130;-80
2022/04/03 06:25:09;;;;;;;2.35;0.50;;;1.40;99.90;;;;;;5127521;27;20039;-80
2022/04/03 06:27:35;;;;;;;1.27;0.60;;;1.40;99.90;;;;;;5125968;27;20042;-80
2022/04/03 06:30:00;;;;;;;0.52;0.40;;;1.50;99.90;;;;;;5130192;27;20042;-80
2022/04/03 06:32:26;;;;;;;0.97;0.60;;;1.50;99.90;;;;;;5132689;27;20410;-80
2022/04/03 06:34:53;;;;;;;0.88;0.60;;;1.60;99.90;;;;;;5122018;27;20293;-80
2022/04/03 06:37:19;;;;;;;0.55;0.50;;;1.70;99.90;;;;;;5123438;27;20126;-80
2022/04/03 06:39:45;;;;;;;1.77;0.80;;;1.70;99.90;;;;;;5130777;27;20187;-79
2022/04/03 06:42:10;;;;;;;1.50;0.63;;;1.80;99.90;;;;;;5125178;27;20311;-69
2022/04/03 06:44:38;;;;;;;3.00;1.10;;;1.90;99.90;;;;;;5119406;27;20120;-80
2022/04/03 06:47:05;;;;;;;1.95;0.95;;;2.10;99.90;;;;;;5102447;27;20039;-80
2022/04/03 06:49:31;;;;;;;3.80;1.20;;;2.70;99.90;;;;;;5127516;27;20355;-79
2022/04/03 06:51:57;;;;;;;2.50;1.30;;;3.20;99.90;;;;;;5125444;27;20043;-71
2022/04/03 06:54:22;;;;;;;1.85;1.00;;;3.60;99.90;;;;;;5119882;27;20092;-79
2022/04/03 06:56:48;;;;;;;4.60;1.08;;;3.90;99.90;;;;;;5127744;27;20031;-77
2022/04/03 06:59:14;;;;;;;1.50;0.98;;;4.10;99.90;;;;;;5104519;27;20043;-79
2022/04/03 07:01:39;;;;;;;2.55;0.90;;;4.50;99.90;;;;;;5103235;27;20036;-80
2022/04/03 07:04:05;;;;;;;4.00;1.07;;;4.70;99.90;;;;;;5129517;27;20283;-70
2022/04/03 07:06:31;;;;;;;4.53;0.82;;;4.80;99.90;;;;;;5104486;28;20353;-72
2022/04/03 07:08:57;;;;;;;2.28;0.90;;;5.00;99.90;;;;;;5099625;28;20371;-72
2022/04/03 07:11:23;;;;;;;2.53;0.80;;;5.30;99.90;;;;;;5107397;27;20436;-71
2022/04/03 07:13:49;;;;;;;2.17;1.00;;;5.50;99.90;;;;;;5129715;27;20039;-71
2022/04/03 07:16:15;;;;;;;3.70;1.25;;;5.50;99.90;;;;;;5127972;27;20920;-72
2022/04/03 07:18:41;;;;;;;1.33;0.90;;;5.50;99.90;;;;;;5115391;27;20533;-72
2022/04/03 07:21:06;;;;;;;2.00;0.90;;;5.60;99.90;;;;;;5128585;27;20091;-80
2022/04/03 07:23:32;;;;;;;2.93;0.90;;;5.50;99.90;;;;;;5114120;27;20410;-80
2022/04/03 07:25:58;;;;;;;3.38;1.10;;;5.10;99.90;;;;;;5078532;28;20345;-80
2022/04/03 07:28:24;;;;;;;2.10;0.90;;;5.10;99.90;;;;;;5128718;27;20080;-79
2022/04/03 07:30:49;;;;;;;4.00;1.00;;;5.20;99.90;;;;;;5107642;27;20082;-72
2022/04/03 07:33:20;;;;;;;1.95;0.90;;;5.30;99.90;;;;;;5127846;27;20156;-71
2022/04/03 07:35:47;;;;;;;1.75;0.60;;;5.40;99.90;;;;;;5115051;27;20122;-71
2022/04/03 07:38:14;;;;;;;0.70;0.43;;;5.50;99.90;;;;;;5099808;27;20050;-70
2022/04/03 07:40:40;;;;;;;1.88;0.63;;;5.60;99.90;;;;;;5102672;27;20035;-70
2022/04/03 07:43:06;;;;;;;1.63;0.52;;;5.90;99.90;;;;;;5122671;27;20050;-71
2022/04/03 07:45:32;;;;;;;1.38;0.80;;;5.90;99.90;;;;;;5086188;28;20064;-71
2022/04/03 07:47:58;;;;;;;2.92;0.63;;;5.80;99.90;;;;;;5113386;27;20142;-71
2022/04/03 07:50:25;;;;;;;1.30;0.60;;;5.90;99.90;;;;;;5094679;27;20271;-71
2022/04/03 07:52:51;;;;;;;0.75;0.30;;;6.00;99.90;;;;;;5117989;27;20039;-71
2022/04/03 07:55:17;;;;;;;2.72;0.70;;;6.10;99.90;;;;;;5095666;28;20031;-78
2022/04/03 07:57:43;;;;;;;1.77;0.50;;;6.30;99.90;;;;;;5124864;27;20042;-79
2022/04/03 08:00:11;;;;;;;2.60;0.50;;;6.40;99.90;;;;;;5126887;27;20035;-78
2022/04/03 08:02:38;;;;;;;0.95;0.40;;;6.70;99.90;;;;;;5115243;27;20070;-80
2022/04/03 08:05:05;;;;;;;3.30;0.70;;;6.70;99.90;;;;;;5096479;28;20031;-79
2022/04/03 08:07:36;;;;;;;2.95;0.88;;;6.60;99.90;;;;;;5120411;27;20035;-79
2022/04/03 08:10:05;;;;;;;3.50;0.68;;;6.60;99.90;;;;;;5115110;27;20039;-79
2022/04/03 08:12:31;;;;;;;1.88;0.55;;;6.60;99.90;;;;;;5128661;27;20124;-80
2022/04/03 08:14:57;;;;;;;3.15;0.90;;;6.50;99.90;;;;;;5131785;27;20450;-81
2022/04/03 08:17:22;;;;;;;2.17;0.73;;;6.40;99.90;;;;;;5103615;28;20039;-75
2022/04/03 08:19:48;;;;;;;2.97;0.70;;;6.40;99.90;;;;;;5105714;28;20548;-72
2022/04/03 08:22:14;;;;;;;4.10;1.00;;;6.50;99.90;;;;;;5123769;27;20468;-82
2022/04/03 08:24:40;;;;;;;4.50;0.80;;;6.60;99.90;;;;;;5127512;27;20086;-77
2022/04/03 08:27:07;;;;;;;2.13;0.82;;;6.80;99.90;;;;;;5117287;27;20034;-78
2022/04/03 08:29:33;;;;;;;3.25;0.80;;;6.90;99.90;;;;;;5123601;27;20050;-70
2022/04/03 08:31:58;;;;;;;4.25;1.00;;;6.90;99.90;;;;;;5107607;27;20047;-78
2022/04/03 08:34:24;;;;;;;4.43;0.93;;;6.80;99.90;;;;;;5133656;27;20046;-78
2022/04/03 08:36:50;;;;;;;4.00;0.68;;;6.90;99.90;;;;;;5127246;27;20039;-78
2022/04/03 08:39:15;;;;;;;2.72;0.80;;;6.90;99.90;;;;;;5136769;27;20035;-78
2022/04/03 08:41:42;;;;;;;3.22;0.60;;;7.00;99.90;;;;;;5138526;27;20035;-78
2022/04/03 08:44:08;;;;;;;2.97;0.70;;;7.20;99.90;;;;;;5117931;27;20049;-78
2022/04/03 08:46:34;;;;;;;0.95;0.57;;;7.30;99.90;;;;;;5100838;27;20096;-78
2022/04/03 08:49:01;;;;;;;1.52;0.50;;;7.40;99.90;;;;;;5131458;27;20041;-79
2022/04/03 08:51:32;;;;;;;2.75;0.88;;;7.50;99.90;;;;;;5124645;27;20034;-79
2022/04/03 08:53:58;;;;;;;4.85;0.70;;;7.30;99.90;;;;;;5131853;27;20123;-79
2022/04/03 08:56:23;;;;;;;2.53;0.70;;;7.30;99.90;;;;;;5107282;27;20030;-82
2022/04/03 08:58:49;;;;;;;1.25;0.50;;;7.20;99.90;;;;;;5116251;27;20041;-79
2022/04/03 09:01:17;;;;;;;3.75;0.80;;;7.30;99.90;;;;;;5129597;27;20057;-78
2022/04/03 09:03:43;;;;;;;2.85;0.70;;;7.60;99.90;;;;;;5107112;27;20450;-71
2022/04/03 09:06:17;;;;;;;1.80;0.50;;;7.30;99.90;;;;;;5131118;27;20062;-78
2022/04/03 09:08:44;;;;;;;1.42;0.60;;;7.50;99.90;;;;;;5133218;27;20049;-79
2022/04/03 09:11:10;;;;;;;1.30;0.47;;;7.60;99.90;;;;;;5117734;27;20043;-79
2022/04/03 09:13:37;;;;;;;1.67;0.55;;;8.00;99.90;;;;;;5104190;27;20077;-79
2022/04/03 09:16:05;;;;;;;1.83;0.50;;;7.90;99.90;;;;;;5113439;27;20362;-79
2022/04/03 09:18:50;;;;;;;2.85;0.73;;;7.70;99.90;;;;;;5135275;27;20043;-78
2022/04/03 09:21:22;;;;;;;2.28;0.60;;;7.60;99.90;;;;;;5111725;27;20046;-79
2022/04/03 09:24:04;;;;;;;2.42;0.50;;;7.60;99.90;;;;;;5133872;27;20047;-79
2022/04/03 09:26:31;;;;;;;1.75;0.50;;;7.90;99.90;;;;;;5117448;27;20547;-78
2022/04/03 09:29:29;;;;;;;2.53;0.75;;;8.20;99.90;;;;;;5134809;27;20034;-77
2022/04/03 09:31:59;;;;;;;;;;;7.90;99.90;;;;;;5076649;27;20122;-79
2022/04/03 09:34:26;;;;;;;1.48;0.57;;;7.60;99.90;;;;;;5100861;27;19964;-78
2022/04/03 09:36:57;;;;;;;1.83;0.60;;;7.50;99.90;;;;;;5102893;27;20121;-80
2022/04/03 09:39:25;;;;;;;2.75;0.63;;;7.40;99.90;;;;;;5114504;27;20035;-79
2022/04/03 09:41:58;;;;;;;2.78;0.60;;;7.60;99.90;;;;;;5118733;27;20043;-78
2022/04/03 09:44:39;;;;;;;1.67;0.65;;;8.10;99.90;;;;;;5138219;27;20103;-79
2022/04/03 09:47:26;;;;;;;2.75;0.30;;;8.10;99.90;;;;;;5124853;27;20066;-78
2022/04/03 09:50:00;;;;;;;2.85;0.60;;;7.80;99.90;;;;;;5134649;27;20038;-78
2022/04/03 09:52:41;;;;;;;1.45;0.50;;;7.40;99.90;;;;;;5138112;27;20035;-78
2022/04/03 09:55:15;;;;;;;3.15;0.73;;;7.70;99.90;;;;;;5121008;27;20102;-79
2022/04/03 09:57:42;;;;;;;2.28;0.57;;;8.00;99.90;;;;;;5137762;27;20047;-78
2022/04/03 10:00:09;;;;;;;0.70;0.40;;;8.30;99.90;;;;;;5138010;27;20076;-79
2022/04/03 10:02:34;;;;;;;;;;;8.60;99.90;;;;;;5112207;27;20039;-79
2022/04/03 10:05:01;;;;;;;2.40;0.40;;;8.60;99.90;;;;;;5134889;27;19919;-79
2022/04/03 10:07:30;;;;;;;2.38;0.52;;;8.30;98.90;;;;;;5130926;27;20039;-79
2022/04/03 10:09:56;;;;;;;1.92;0.38;;;8.10;99.90;;;;;;5132663;27;20033;-70
2022/04/03 10:12:23;;;;;;;2.80;0.65;;;7.90;99.90;;;;;;5128669;27;20038;-71
2022/04/03 10:14:50;;;;;;;1.10;0.50;;;8.10;99.90;;;;;;5135083;27;20080;-70
2022/04/03 10:17:18;;;;;;;1.80;0.40;;;7.90;99.90;;;;;;5133910;27;20035;-70
2022/04/03 10:19:44;;;;;;;2.17;0.50;;;8.00;99.90;;;;;;5134235;27;20061;-70
2022/04/03 10:22:21;;;;;;;2.17;0.40;;;8.10;99.90;;;;;;5114499;27;20460;-70
2022/04/03 10:24:53;;;;;;;2.30;0.60;;;8.30;97.80;;;;;;5123174;27;20043;-69
2022/04/03 10:27:29;;;;;;;0.95;0.50;;;8.50;99.90;;;;;;5134949;27;20162;-71
2022/04/03 10:29:57;;;;;;;0.63;0.30;;;8.00;99.00;;;;;;5131056;27;20034;-71
2022/04/03 10:32:23;;;;;;;1.42;0.57;;;7.50;99.00;;;;;;5132790;27;20363;-71
2022/04/03 10:34:54;;;;;;;2.35;0.50;;;7.30;99.30;;;;;;5119770;27;20053;-71
2022/04/03 10:37:43;;;;;;;2.83;0.63;;;7.30;99.10;;;;;;5113247;27;20073;-71
2022/04/03 10:40:15;;;;;;;1.88;0.45;;;7.90;99.90;;;;;;5132008;27;20049;-71
2022/04/03 10:42:58;;;;;;;4.10;0.60;;;8.50;99.90;;;;;;5129877;27;20069;-71
2022/04/03 10:45:27;;;;;;;2.95;0.60;;;8.90;99.50;;;;;;5106932;27;20114;-71
2022/04/03 10:48:19;;;;;;;2.45;0.80;;;8.70;98.00;;;;;;5130360;27;20110;-71
2022/04/03 10:51:06;;;;;;;0.75;0.40;;;8.00;95.80;;;;;;5114040;27;20066;-69
2022/04/03 10:53:43;;;;;;;;;;;7.90;98.90;;;;;;5114446;27;20042;-69
2022/04/03 10:56:19;;;;;;;2.40;0.68;;;7.80;99.90;;;;;;5132772;27;19919;-72
2022/04/03 10:58:50;;;;;;;2.00;0.80;;;7.10;99.90;;;;;;5127194;27;20088;-73
2022/04/03 11:01:33;;;;;;;4.82;0.73;;;6.60;99.90;;;;;;5089646;27;20051;-74
2022/04/03 11:04:09;;;;;;;3.22;0.65;;;6.20;99.90;;;;;;5130988;27;20049;-72
2022/04/03 11:06:45;;;;;;;4.20;0.77;;;6.10;99.90;;;;;;5123450;27;20038;-73
2022/04/03 11:09:20;;;;;;;1.48;0.55;;;6.20;99.90;;;;;;5130610;27;20399;-71
2022/04/03 11:11:53;;;;;;;2.67;0.63;;;6.40;99.90;;;;;;5130004;27;20039;-71
2022/04/03 11:14:52;;;;;;;2.10;0.82;;;6.70;99.90;;;;;;5125790;27;20083;-73
2022/04/03 11:17:19;;;;;;;1.13;0.60;;;6.80;99.90;;;;;;5127328;27;20052;-73
2022/04/03 11:19:46;;;;;;;1.77;0.55;;;6.90;99.90;;;;;;5112793;27;20038;-74
2022/04/03 11:22:17;;;;;;;2.83;0.70;;;7.10;99.90;;;;;;5129006;27;20041;-74
2022/04/03 11:24:43;;;;;;;2.10;0.65;;;7.30;99.90;;;;;;5110094;27;20054;-74
2022/04/03 11:27:10;;;;;;;1.58;0.60;;;7.40;99.90;;;;;;5110292;27;20164;-75
2022/04/03 11:29:36;;;;;;;1.70;0.77;;;7.40;99.90;;;;;;5132400;27;20050;-74
2022/04/03 11:32:06;;;;;;;2.45;0.77;;;7.40;99.90;;;;;;5132677;27;20094;-75
2022/04/03 11:34:32;;;;;;;3.03;0.70;;;7.20;99.90;;;;;;5129959;27;20046;-74
2022/04/03 11:37:02;;;;;;;;;;;7.10;99.90;;;;;;5123472;27;20051;-73
2022/04/03 11:39:33;;;;;;;1.30;0.65;;;7.60;99.90;;;;;;5130201;27;19923;-74
2022/04/03 11:42:06;;;;;;;1.20;0.50;;;8.70;99.90;;;;;;5130301;27;20330;-74
2022/04/03 11:44:34;;;;;;;2.25;0.80;;;9.50;99.90;;;;;;5147492;27;20042;-73
2022/04/03 11:47:01;;;;;;;2.75;0.60;;;10.00;99.90;;;;;;5132189;27;20113;-73
2022/04/03 11:49:29;;;;;;;2.85;0.70;;;9.80;99.90;;;;;;5130408;27;20092;-73
2022/04/03 11:52:07;;;;;;;1.58;0.50;;;9.20;99.40;;;;;;5132652;27;20077;-73
2022/04/03 11:54:34;;;;;;;1.50;0.50;;;8.30;98.80;;;;;;5112401;27;20066;-74
2022/04/03 11:57:02;;;;;;;2.70;0.50;;;7.90;99.60;;;;;;5124704;27;20049;-74
2022/04/03 11:59:32;;;;;;;1.13;0.50;;;7.50;99.90;;;;;;5129400;27;20138;-72
2022/04/03 12:01:58;;;;;;;1.85;0.45;;;7.00;99.90;;;;;;5125519;27;20049;-73
2022/04/03 12:04:24;;;;;;;0.55;0.30;;;7.00;99.90;;;;;;5128845;27;20038;-75
2022/04/03 12:06:56;;;;;;;1.50;0.30;;;7.00;99.90;;;;;;5129646;27;20031;-75
2022/04/03 12:09:23;;;;;;;1.25;0.40;;;7.50;99.90;;;;;;5124829;27;20039;-74
2022/04/03 12:11:52;;;;;;;1.73;0.47;;;8.00;99.90;;;;;;5128971;27;20073;-73
2022/04/03 12:14:25;;;;;;;0.60;0.22;;;8.30;99.90;;;;;;5145649;27;20039;-73
2022/04/03 12:16:59;;;;;;;2.50;0.40;;;8.90;99.00;;;;;;5120662;27;20118;-73
2022/04/03 12:19:25;;;;;;;2.10;0.50;;;8.90;97.70;;;;;;5111801;27;20074;-72
2022/04/03 12:21:51;;;;;;;1.33;0.47;;;9.20;98.80;;;;;;5096169;28;20383;-73
2022/04/03 12:24:19;;;;;;;2.28;0.50;;;9.60;99.20;;;;;;5121393;27;20118;-75
2022/04/03 12:27:01;;;;;;;2.65;0.40;;;9.60;98.10;;;;;;5127515;27;20039;-75
2022/04/03 12:29:29;;;;;;;2.15;0.40;;;9.90;97.10;;;;;;5122721;27;20041;-75
2022/04/03 12:32:00;;;;;;;4.00;0.60;;;10.10;98.10;;;;;;5124044;27;20860;-72
2022/04/03 12:34:27;;;;;;;2.38;0.70;;;10.40;96.30;;;;;;5123704;27;20442;-74
2022/04/03 12:36:55;;;;;;;0.73;0.30;;;9.70;97.10;;;;;;5129523;27;20470;-73
2022/04/03 12:39:27;;;;;;;3.00;0.70;;;9.50;97.90;;;;;;5115032;27;20038;-72
2022/04/03 12:41:53;;;;;;;1.63;0.60;;;8.60;99.50;;;;;;5129679;27;20055;-73
2022/04/03 12:44:20;;;;;;;2.03;0.63;;;8.20;99.90;;;;;;5126369;27;20101;-73
2022/04/03 12:46:46;;;;;;;3.10;0.63;;;8.00;99.90;;;;;;5109768;27;20478;-73
2022/04/03 12:49:19;;;;;;;2.78;0.75;;;8.20;99.90;;;;;;5131493;27;20038;-73
2022/04/03 12:51:49;;;;;;;2.25;0.50;;;8.80;99.90;;;;;;5112490;27;20118;-74
2022/04/03 12:54:15;;;;;;;1.90;0.50;;;8.70;99.90;;;;;;5108143;27;20485;-73
2022/04/03 12:59:37;;;;;;;3.95;0.90;;;8.30;99.90;;;;;;5129773;27;20570;-73
2022/04/03 13:02:06;;;;;;;1.33;0.70;;;8.00;99.90;;;;;;5108493;27;20098;-72
2022/04/03 13:04:32;;;;;;;1.58;0.75;;;7.80;99.90;;;;;;5128894;27;20062;-72